Flight Track Log - Related Links

Times and Time Zones

All times are in EDT time to prevent confusion due to time zone crossing. See the SWA2521 flight status page for this flight to view local times or setup timezone preferences in your user account.

Time Position Orientation Groundspeed Altitude Reporting Facility
EDT Latitude Longitude Course Direction KTS MPH feet Rate Location/Type
Sat 09:54:47 PM 33.9411 -118.5111 265° West 208 239 4,800  Level Los Angeles Center
Sat 09:55:49 PM 33.9311 -118.5936 262° West 231 266 9,100 3,171 Climbing Los Angeles Center
Sat 09:56:50 PM 33.8644 -118.5928 179° South 301 346 11,300 2,780 Climbing Los Angeles Center
Sat 09:57:52 PM 33.8928 -118.4850 72° East 352 405 14,800 3,171 Climbing Los Angeles Center
Sat 09:58:53 PM 33.9575 -118.3950 49° Northeast 368 423 17,800 3,024 Climbing Los Angeles Center
Sat 09:59:00 PM 34.1800 -117.9733 59° Northeast  Level FlightAware Approximate
Sat 09:59:55 PM 34.0189 -118.2839 56° Northeast 394 453 21,000  Level Los Angeles Center
Sat 10:00:57 PM 34.0842 -118.1686 56° Northeast 409 471 23,400 2,927 Climbing Los Angeles Center
Sat 10:01:58 PM 34.1494 -118.0514 56° Northeast 418 481 27,000 2,732 Climbing Los Angeles Center
Sat 10:03:00 PM 34.2125 -117.9378 56° Northeast 410 472 29,000 976 Climbing Los Angeles Center
Sat 10:04:01 PM 34.2769 -117.8242 56° Northeast 409 471 29,000  Level Los Angeles Center
Sat 10:05:02 PM 34.3408 -117.7100 56° Northeast 411 473 29,000  Level Los Angeles Center
Sat 10:06:04 PM 34.4142 -117.5836 55° Northeast 437 503 29,000  Level Los Angeles Center
Sat 10:07:06 PM 34.4908 -117.4556 54° Northeast 467 537 29,000  Level Los Angeles Center
Sat 10:08:07 PM 34.5800 -117.3025 55° Northeast 467 537 29,000  Level Los Angeles Center
Sat 10:09:09 PM 34.6542 -117.1747 55° Northeast 467 537 29,000  Level Los Angeles Center
Sat 10:10:23 PM 34.7286 -117.0444 55° Northeast 471 542 29,000  Level Los Angeles Center
Sat 10:11:24 PM 34.8194 -116.8900 54° Northeast 472 543 29,000  Level Los Angeles Center
Sat 10:12:26 PM 34.8939 -116.7603 55° Northeast 471 542 29,000 -97 Level Los Angeles Center
Sat 10:13:28 PM 34.9692 -116.6303 55° Northeast 471 542 28,800 -1,707 Descending Los Angeles Center
Sat 10:14:29 PM 35.0586 -116.4764 55° Northeast 467 537 25,500 -2,341 Descending Los Angeles Center
Sat 10:15:31 PM 35.1322 -116.3586 53° Northeast 450 518 24,000 -732 Descending Los Angeles Center
Sat 10:16:32 PM 35.2203 -116.2539 44° Northeast 443 510 24,000 -146 Level Los Angeles Center
Sat 10:17:34 PM 35.3036 -116.1458 47° Northeast 438 504 23,700 -1,512 Descending Los Angeles Center
Sat 10:18:35 PM 35.3867 -116.0417 46° Northeast 430 495 20,900 -2,634 Descending Los Angeles Center
Sat 10:19:37 PM 35.4686 -115.9394 45° Northeast 424 488 18,300 -2,684 Descending Los Angeles Center
Sat 10:20:29 PM 35.5497 -115.8419 44° Northeast 410 472 15,800 -2,681 Descending Los Angeles Center
Sat 10:21:11 PM 35.6003 -115.7758 47° Northeast 396 456 14,100 -1,631 Descending Los Angeles Center
Sat 10:22:12 PM 35.6750 -115.6806 46° Northeast 359 413 13,000 -1,131 Descending Los Angeles Center
Sat 10:23:13 PM 35.6994 -115.5828 73° East 316 364 11,800 -1,187 Descending Los Angeles Center
Sat 10:23:43 PM 35.6956 -115.5403 96° East 307 353 11,200 -1,791 Descending Los Angeles Center
Sat 10:24:20 PM 35.7192 -115.4839 63° Northeast 307 353 9,800 -1,615 Descending Los Angeles Center
Sat 10:25:27 PM 35.7961 -115.4111 37° Northeast 297 342 8,400 -938 Descending Los Angeles Center
Sat 10:26:28 PM 35.8547 -115.3522 39° Northeast 269 310 7,800 -347 Descending Los Angeles Center
Sat 10:27:28 PM 35.9061 -115.3011 39° Northeast 242 278 7,700 -595 Descending Los Angeles Center
Sat 10:28:29 PM 35.9692 -115.3122 352° North 237 273 6,600 -1,241 Descending Los Angeles Center
Sat 10:29:24 PM 36.0250 -115.3206 353° North 220 253 5,300 -1,241 Descending Los Angeles Center
Sat 10:30:25 PM 36.0711 -115.2947 24° Northeast 188 216 4,200 -931 Descending Los Angeles Center
Sat 10:31:20 PM 36.0731 -115.2436 87° East 162 186 3,500 -733 Descending Los Angeles Center
Sat 10:31:55 PM 36.0733 -115.2150 89° East 162 186 3,100 -818 Descending Los Angeles Center
Sat 10:32:26 PM 36.0739 -115.1875 89° East 150 173 2,600 -197 Descending Los Angeles Center
Sat 10:32:56 PM 36.0725 -115.1672 95° East 147 169 2,900 600 Climbing Los Angeles Center
Sat 10:34:00 PM 36.0801 -115.1523 95° East  Level Estimated
Sat 10:41:00 PM 36.0801 -115.1523 270° West  Level Estimated

Login

Don't have an account? Register now (free) for customized features, flight alerts, and more!